createdAt,value
2024-05-09T00:00:45.980Z,97157.09
2024-05-09T00:03:13.375Z,97155.25
2024-05-09T00:05:45.219Z,97153.94
2024-05-09T00:08:15.354Z,97150.91
2024-05-09T00:10:43.095Z,97144.81
2024-05-09T00:13:11.112Z,97146.28
2024-05-09T00:15:39.153Z,97146.09
2024-05-09T00:18:09.436Z,97147.22
2024-05-09T00:20:40.004Z,97145.56
2024-05-09T00:23:12.094Z,97150.03
2024-05-09T00:25:40.843Z,97149.72
2024-05-09T00:28:07.783Z,97156.66
2024-05-09T00:30:36.692Z,97140.50
2024-05-09T00:33:06.707Z,97150.25
2024-05-09T00:35:35.790Z,97141.13
2024-05-09T00:38:03.327Z,97145.25
2024-05-09T00:40:42.427Z,97143.94
2024-05-09T00:43:16.474Z,97153.03
2024-05-09T00:45:44.385Z,97145.59
2024-05-09T00:48:15.353Z,97153.72
2024-05-09T00:50:46.457Z,97154.16
2024-05-09T00:53:16.953Z,97151.50
2024-05-09T00:55:44.759Z,97155.97
2024-05-09T00:58:14.397Z,97153.34
2024-05-09T01:00:42.132Z,97165.91
2024-05-09T01:03:11.280Z,97163.38
2024-05-09T01:05:40.585Z,97165.50
2024-05-09T01:08:09.567Z,97164.16
2024-05-09T01:10:42.802Z,97170.13
2024-05-09T01:13:12.140Z,97164.97
2024-05-09T01:15:39.284Z,97172.25
2024-05-09T01:18:12.527Z,97178.53
2024-05-09T01:20:43.712Z,97184.13
2024-05-09T01:23:15.102Z,97179.34
2024-05-09T01:25:44.987Z,97182.66
2024-05-09T01:28:12.565Z,97175.22
2024-05-09T01:30:39.680Z,97180.69
2024-05-09T01:33:08.965Z,97181.16
2024-05-09T01:35:38.152Z,97182.66
2024-05-09T01:38:05.624Z,97178.53
2024-05-09T01:40:38.111Z,97179.88
2024-05-09T01:43:08.310Z,97172.50
2024-05-09T01:45:36.059Z,97170.66
2024-05-09T01:48:03.812Z,97180.94
2024-05-09T01:53:01.331Z,97171.31
2024-05-09T01:55:28.584Z,97178.28
2024-05-09T01:57:55.623Z,97179.56
2024-05-09T02:00:33.864Z,97178.28
2024-05-09T02:03:10.337Z,97175.78
2024-05-09T02:05:38.685Z,97173.03
2024-05-09T02:08:07.062Z,97190.22
2024-05-09T02:10:34.104Z,97190.22
2024-05-09T02:13:01.329Z,97187.59
2024-05-09T02:15:28.428Z,97187.94
2024-05-09T02:17:56.051Z,97193.53
2024-05-09T02:20:30.647Z,97194.69
2024-05-09T02:23:04.471Z,97205.78
2024-05-09T02:25:35.108Z,97194.50
2024-05-09T02:28:02.432Z,97203.41
2024-05-09T02:30:38.120Z,97209.22
2024-05-09T02:33:10.382Z,97202.47
2024-05-09T02:35:39.939Z,97198.50
2024-05-09T02:38:10.110Z,97198.06
2024-05-09T02:40:39.396Z,97196.56
2024-05-09T02:43:09.669Z,97201.22
2024-05-09T02:45:38.023Z,97198.59
2024-05-09T02:48:05.899Z,97209.84
2024-05-09T02:50:38.089Z,97210.50
2024-05-09T02:53:11.927Z,97209.19
2024-05-09T02:55:45.361Z,97207.84
2024-05-09T02:58:15.156Z,97208.66
2024-05-09T03:00:43.068Z,97213.16
2024-05-09T03:03:14.676Z,97211.84
2024-05-09T03:05:46.329Z,97214.16
2024-05-09T03:08:16.363Z,97210.50
2024-05-09T03:10:43.586Z,97209.38
2024-05-09T03:13:14.493Z,97207.25
2024-05-09T03:15:42.949Z,97217.66
2024-05-09T03:18:11.111Z,97217.47
2024-05-09T03:20:39.484Z,97205.63
2024-05-09T03:23:09.315Z,97200.97
2024-05-09T03:25:40.155Z,97196.38
2024-05-09T03:28:07.582Z,97201.97
2024-05-09T03:30:41.110Z,97207.28
2024-05-09T03:33:20.491Z,97203.19
2024-05-09T03:35:49.306Z,97207.97
2024-05-09T03:38:17.117Z,97202.16
2024-05-09T03:40:49.288Z,97213.25
2024-05-09T03:43:17.476Z,97212.59
2024-05-09T03:45:45.315Z,97217.56
2024-05-09T03:48:12.751Z,97219.38
2024-05-09T03:50:40.749Z,97218.56
2024-05-09T03:53:10.609Z,97216.41
2024-05-09T03:55:38.352Z,97220.72
2024-05-09T03:58:08.156Z,97224.53
2024-05-09T04:00:39.760Z,97219.22
2024-05-09T04:03:12.468Z,97225.38
2024-05-09T04:05:42.756Z,97224.88
2024-05-09T04:08:11.232Z,97219.91
2024-05-09T04:10:38.480Z,97223.75
2024-05-09T04:13:05.999Z,97224.56
2024-05-09T04:15:33.465Z,97222.25
2024-05-09T04:18:01.905Z,97223.59
2024-05-09T04:20:37.402Z,97226.59
2024-05-09T04:23:09.046Z,97231.56
2024-05-09T04:25:36.957Z,97234.88
2024-05-09T04:28:04.139Z,97234.22
2024-05-09T04:30:37.541Z,97230.94
2024-05-09T04:33:09.224Z,97236.91
2024-05-09T04:35:39.156Z,97234.94
2024-05-09T04:38:09.016Z,97232.97
2024-05-09T04:40:37.304Z,97241.41
2024-05-09T04:43:06.806Z,97240.25
2024-05-09T04:45:34.161Z,97246.53
2024-05-09T04:48:02.163Z,97231.97
2024-05-09T04:50:35.869Z,97242.25
2024-05-09T04:53:10.672Z,97244.56
2024-05-09T04:55:39.604Z,97245.22
2024-05-09T04:58:10.428Z,97254.66
2024-05-09T05:00:39.715Z,97251.50
2024-05-09T05:03:13.612Z,97250.47
2024-05-09T05:05:44.100Z,97259.06
2024-05-09T05:08:17.298Z,97260.69
2024-05-09T05:10:45.976Z,97261.66
2024-05-09T05:13:18.577Z,97264.66
2024-05-09T05:15:46.967Z,97275.59
2024-05-09T05:18:15.444Z,97270.28
2024-05-09T05:20:43.472Z,97277.91
2024-05-09T05:23:13.524Z,97277.75
2024-05-09T05:25:48.450Z,97284.22
2024-05-09T05:28:19.125Z,97274.00
2024-05-09T05:30:47.095Z,97279.91
2024-05-09T05:33:15.714Z,97287.38
2024-05-09T05:35:42.949Z,97277.63
2024-05-09T05:38:11.141Z,97297.16
2024-05-09T05:40:39.622Z,97286.56
2024-05-09T05:43:14.168Z,97284.28
2024-05-09T05:45:41.113Z,97286.59
2024-05-09T05:48:08.438Z,97294.53
2024-05-09T05:50:37.797Z,97296.28
2024-05-09T05:53:07.885Z,97287.38
2024-05-09T05:55:42.132Z,97291.72
2024-05-09T05:58:10.876Z,97287.69
2024-05-09T06:00:39.962Z,97291.34
2024-05-09T06:03:13.697Z,97285.38
2024-05-09T06:05:44.404Z,97288.00
2024-05-09T06:08:12.129Z,97295.13
2024-05-09T06:10:40.941Z,97293.78
2024-05-09T06:13:12.559Z,97289.63
2024-05-09T06:15:40.526Z,97296.75
2024-05-09T06:18:09.947Z,97298.06
2024-05-09T06:20:40.355Z,97298.91
2024-05-09T06:23:09.707Z,97297.72
2024-05-09T06:25:37.351Z,97294.41
2024-05-09T06:28:08.283Z,97288.63
2024-05-09T06:31:05.730Z,97300.22
2024-05-09T06:33:34.328Z,97299.72
2024-05-09T06:36:01.673Z,97301.53
2024-05-09T06:38:29.445Z,97299.41
2024-05-09T06:40:56.281Z,97302.69
2024-05-09T06:43:23.626Z,97291.28
2024-05-09T06:45:54.482Z,97295.25
2024-05-09T06:48:22.664Z,97304.03
2024-05-09T06:50:53.622Z,97304.69
2024-05-09T06:53:22.168Z,97302.69
2024-05-09T06:55:49.447Z,97298.22
2024-05-09T06:58:16.616Z,97303.72
2024-05-09T07:00:43.698Z,97299.75
2024-05-09T07:03:13.423Z,97298.41
2024-05-09T07:05:42.721Z,97297.28
2024-05-09T07:08:10.563Z,97304.41
2024-05-09T07:10:38.120Z,97307.09
2024-05-09T07:13:08.727Z,97306.28
2024-05-09T07:15:35.541Z,97309.09
2024-05-09T07:18:18.872Z,97309.72
2024-05-09T07:20:48.977Z,97314.06
2024-05-09T07:23:17.601Z,97310.75
2024-05-09T07:25:44.572Z,97304.81
2024-05-09T07:28:13.679Z,97315.91
2024-05-09T07:30:41.313Z,97314.25
2024-05-09T07:33:09.028Z,97300.84
2024-05-09T07:35:36.040Z,97308.47
2024-05-09T07:38:03.144Z,97304.50
2024-05-09T07:40:35.861Z,97302.03
2024-05-09T07:43:14.431Z,97308.81
2024-05-09T07:45:50.835Z,97312.31
2024-05-09T07:52:37.527Z,97311.78
2024-05-09T07:53:49.638Z,97314.44
2024-05-09T07:56:22.094Z,97311.75
2024-05-09T07:58:52.353Z,97313.28
2024-05-09T08:01:20.042Z,97320.53
2024-05-09T08:03:50.719Z,97322.50
2024-05-09T08:06:17.930Z,97323.50
2024-05-09T08:08:47.032Z,97320.94
2024-05-09T08:11:14.213Z,97327.84
2024-05-09T08:13:42.750Z,97331.63
2024-05-09T08:16:10.201Z,97328.47
2024-05-09T08:18:37.508Z,97327.81
2024-05-09T08:21:04.998Z,97342.06
2024-05-09T08:23:32.452Z,97333.44
2024-05-09T08:25:59.327Z,97331.81
2024-05-09T08:28:26.530Z,97339.22
2024-05-09T08:30:53.495Z,97337.09
2024-05-09T08:33:20.979Z,97342.41
2024-05-09T08:35:47.910Z,97335.44
2024-05-09T08:38:14.902Z,97345.53
2024-05-09T08:40:42.618Z,97343.00
2024-05-09T08:43:11.655Z,97340.09
2024-05-09T08:45:44.866Z,97346.75
2024-05-09T08:48:15.163Z,97355.03
2024-05-09T08:50:43.789Z,97354.19
2024-05-09T08:53:12.008Z,97356.69
2024-05-09T08:55:42.046Z,97345.75
2024-05-09T08:58:19.531Z,97362.34
2024-05-09T09:00:50.739Z,97357.38
2024-05-09T09:03:19.800Z,97364.66
2024-05-09T09:05:58.554Z,97362.69
2024-05-09T09:08:26.606Z,97359.69
2024-05-09T09:10:57.014Z,97359.72
2024-05-09T09:13:24.027Z,97358.88
2024-05-09T09:15:51.318Z,97353.72
2024-05-09T09:18:19.288Z,97356.69
2024-05-09T09:20:46.403Z,97361.97
2024-05-09T09:23:13.496Z,97350.34
2024-05-09T09:25:41.258Z,97360.63
2024-05-09T09:28:08.697Z,97357.81
2024-05-09T09:30:42.667Z,97364.59
2024-05-09T09:33:10.475Z,97365.59
2024-05-09T09:35:40.052Z,97364.41
2024-05-09T09:38:10.781Z,97362.56
2024-05-09T09:40:46.654Z,97357.97
2024-05-09T09:43:22.942Z,97362.13
2024-05-09T09:45:51.538Z,97354.81
2024-05-09T09:48:20.507Z,97362.94
2024-05-09T09:50:48.755Z,97367.72
2024-05-09T09:53:17.008Z,97368.16
2024-05-09T09:55:43.941Z,97368.47
2024-05-09T09:58:14.347Z,97368.31
2024-05-09T10:00:42.354Z,97375.44
2024-05-09T10:03:09.523Z,97372.63
2024-05-09T10:05:38.465Z,97370.75
2024-05-09T10:08:08.653Z,97372.38
2024-05-09T10:10:36.438Z,97372.34
2024-05-09T10:13:04.659Z,97372.94
2024-05-09T10:15:45.648Z,97370.78
2024-05-09T10:18:13.100Z,97359.38
2024-05-09T10:20:47.202Z,97370.88
2024-05-09T10:23:34.854Z,97369.50
2024-05-09T10:26:05.181Z,97373.47
2024-05-09T10:28:39.025Z,97378.59
2024-05-09T10:31:11.366Z,97371.66
2024-05-09T10:33:41.546Z,97378.72
2024-05-09T10:36:25.085Z,97373.78
2024-05-09T10:38:53.724Z,97378.75
2024-05-09T10:41:22.471Z,97383.16
2024-05-09T10:43:49.892Z,97386.97
2024-05-09T10:46:19.301Z,97383.22
2024-05-09T10:48:48.242Z,97379.47
2024-05-09T10:51:18.742Z,97383.47
2024-05-09T10:53:47.333Z,97380.06
2024-05-09T10:56:14.975Z,97388.16
2024-05-09T10:58:41.926Z,97390.03
2024-05-09T11:01:10.500Z,97392.28
2024-05-09T11:03:38.819Z,97393.13
2024-05-09T11:06:06.778Z,97382.03
2024-05-09T11:08:34.842Z,97390.19
2024-05-09T11:11:07.114Z,97393.66
2024-05-09T11:13:36.680Z,97403.09
2024-05-09T11:16:05.262Z,97397.50
2024-05-09T11:18:36.574Z,97396.09
2024-05-09T11:21:14.320Z,97397.88
2024-05-09T11:23:41.681Z,97404.09
2024-05-09T11:26:11.054Z,97400.72
2024-05-09T11:28:38.173Z,97408.06
2024-05-09T11:31:10.538Z,97412.81
2024-05-09T11:33:43.864Z,97408.97
2024-05-09T11:36:11.561Z,97408.13
2024-05-09T11:38:38.756Z,97402.41
2024-05-09T11:41:06.582Z,97415.63
2024-05-09T11:43:33.860Z,97416.28
2024-05-09T11:46:01.348Z,97415.00
2024-05-09T11:48:28.568Z,97413.06
2024-05-09T11:50:55.751Z,97410.25
2024-05-09T11:53:22.929Z,97414.03
2024-05-09T11:55:50.265Z,97421.97
2024-05-09T11:58:18.493Z,97414.34
2024-05-09T12:00:46.730Z,97405.59
2024-05-09T12:03:14.314Z,97411.09
2024-05-09T12:05:41.840Z,97424.13
2024-05-09T12:08:09.167Z,97413.53
2024-05-09T12:10:37.008Z,97409.91
2024-05-09T12:13:06.793Z,97407.09
2024-05-09T12:15:38.569Z,97406.28
2024-05-09T12:18:07.844Z,97406.28
2024-05-09T12:20:38.674Z,97401.59
2024-05-09T12:23:09.171Z,97396.59
2024-05-09T12:25:38.308Z,97396.00
2024-05-09T12:28:09.009Z,97402.13
2024-05-09T12:30:40.145Z,97394.28
2024-05-09T12:33:10.008Z,97405.16
2024-05-09T12:35:37.602Z,97398.28
2024-05-09T12:38:04.933Z,97396.75
2024-05-09T12:40:36.679Z,97404.31
2024-05-09T12:43:09.730Z,97395.09
2024-05-09T12:45:38.126Z,97403.34
2024-05-09T12:48:08.390Z,97398.50
2024-05-09T12:50:36.732Z,97391.53
2024-05-09T12:53:04.857Z,97406.44
2024-05-09T12:55:40.906Z,97404.31
2024-05-09T12:58:16.959Z,97403.28
2024-05-09T13:00:45.126Z,97409.22
2024-05-09T13:03:12.899Z,97405.75
2024-05-09T13:05:41.832Z,97408.81
2024-05-09T13:08:09.674Z,97399.91
2024-05-09T13:10:37.617Z,97401.50
2024-05-09T13:13:05.227Z,97402.31
2024-05-09T13:15:34.878Z,97397.19
2024-05-09T13:18:03.749Z,97401.03
2024-05-09T13:20:34.200Z,97397.19
2024-05-09T13:23:08.333Z,97402.78
2024-05-09T13:25:36.922Z,97402.13
2024-05-09T13:28:05.990Z,97403.38
2024-05-09T13:30:39.793Z,97402.00
2024-05-09T13:33:11.442Z,97396.72
2024-05-09T13:35:40.678Z,97393.66
2024-05-09T13:38:08.284Z,97393.31
2024-05-09T13:40:36.502Z,97386.25
2024-05-09T13:43:05.127Z,97393.03
2024-05-09T13:45:33.221Z,97385.63
2024-05-09T13:48:02.687Z,97390.63
2024-05-09T13:50:35.954Z,97389.34
2024-05-09T13:53:08.079Z,97387.97
2024-05-09T13:55:38.528Z,97383.78
2024-05-09T13:58:06.183Z,97389.34
2024-05-09T14:00:44.009Z,97388.75
2024-05-09T14:03:16.481Z,97386.19
2024-05-09T14:05:44.814Z,97392.06
2024-05-09T14:08:12.305Z,97401.00
2024-05-09T14:10:44.500Z,97393.22
2024-05-09T14:13:12.779Z,97398.84
2024-05-09T14:15:40.046Z,97402.19
2024-05-09T14:18:11.511Z,97397.44
2024-05-09T14:20:40.921Z,97387.69
2024-05-09T14:23:07.870Z,97389.06
2024-05-09T14:25:39.793Z,97395.91
2024-05-09T14:28:10.804Z,97391.00
2024-05-09T14:30:39.008Z,97398.81
2024-05-09T14:33:10.195Z,97398.50
2024-05-09T14:35:38.885Z,97391.59
2024-05-09T14:38:08.679Z,97393.78
2024-05-09T14:40:42.032Z,97392.81
2024-05-09T14:43:15.468Z,97400.19
2024-05-09T14:45:45.617Z,97391.59
2024-05-09T14:48:15.755Z,97400.63
2024-05-09T14:50:43.055Z,97392.72
2024-05-09T14:53:11.534Z,97396.59
2024-05-09T14:55:40.909Z,97390.63
2024-05-09T14:58:10.299Z,97386.69
2024-05-09T15:00:46.920Z,97386.63
2024-05-09T15:03:18.566Z,97398.84
2024-05-09T15:05:47.108Z,97396.91
2024-05-09T15:08:14.227Z,97390.25
2024-05-09T15:10:41.868Z,97398.31
2024-05-09T15:13:14.301Z,97401.13
2024-05-09T15:15:43.333Z,97398.78
2024-05-09T15:18:11.450Z,97396.97
2024-05-09T15:20:40.380Z,97392.81
2024-05-09T15:23:07.657Z,97387.50
2024-05-09T15:25:35.521Z,97386.09
2024-05-09T15:28:03.859Z,97389.44
2024-05-09T15:30:33.294Z,97387.75
2024-05-09T15:33:04.161Z,97388.97
2024-05-09T15:35:31.581Z,97381.69
2024-05-09T15:37:59.222Z,97393.66
2024-05-09T15:40:35.552Z,97397.97
2024-05-09T15:43:07.650Z,97394.50
2024-05-09T15:45:37.866Z,97396.91
2024-05-09T15:48:05.755Z,97378.91
2024-05-09T15:50:38.672Z,97392.44
2024-05-09T15:53:09.765Z,97393.78
2024-05-09T15:55:37.945Z,97398.91
2024-05-09T15:58:06.527Z,97385.72
2024-05-09T16:00:38.951Z,97386.47
2024-05-09T16:03:09.882Z,97397.03
2024-05-09T16:05:37.742Z,97403.56
2024-05-09T16:08:05.337Z,97395.97
2024-05-09T16:10:34.250Z,97397.25
2024-05-09T16:13:03.384Z,97399.44
2024-05-09T16:15:31.092Z,97399.44
2024-05-09T16:17:59.791Z,97407.66
2024-05-09T16:20:35.125Z,97410.81
2024-05-09T16:23:07.846Z,97410.00
2024-05-09T16:25:34.926Z,97406.94
2024-05-09T16:28:15.010Z,97413.50
2024-05-09T16:30:44.949Z,97406.72
2024-05-09T16:33:12.235Z,97410.75
2024-05-09T16:35:39.834Z,97416.16
2024-05-09T16:38:07.465Z,97411.59
2024-05-09T16:41:07.876Z,97409.78
2024-05-09T16:43:34.782Z,97414.78
2024-05-09T16:46:03.882Z,97418.25
2024-05-09T16:48:30.965Z,97417.44
2024-05-09T16:50:58.143Z,97428.97
2024-05-09T16:53:28.207Z,97427.31
2024-05-09T16:56:47.063Z,97426.63
2024-05-09T16:59:18.552Z,97434.53
2024-05-09T17:01:45.764Z,97442.09
2024-05-09T17:04:34.470Z,97440.41
2024-05-09T17:07:01.595Z,97440.41
2024-05-09T17:09:29.673Z,97450.31
2024-05-09T17:11:56.576Z,97446.69
2024-05-09T17:14:23.435Z,97448.50
2024-05-09T17:16:50.864Z,97449.50
2024-05-09T17:19:18.051Z,97443.50
2024-05-09T17:21:46.146Z,97443.22
2024-05-09T17:24:13.118Z,97446.28
2024-05-09T17:26:40.310Z,97447.56
2024-05-09T17:29:10.888Z,97449.88
2024-05-09T17:31:39.033Z,97449.50
2024-05-09T17:34:06.119Z,97450.19
2024-05-09T17:36:33.331Z,97459.19
2024-05-09T17:39:00.301Z,97456.00
2024-05-09T17:41:27.221Z,97464.06
2024-05-09T17:44:36.041Z,97459.19
2024-05-09T17:47:06.351Z,97465.44
2024-05-09T17:49:33.553Z,97462.34
2024-05-09T17:52:13.240Z,97464.84
2024-05-09T17:54:43.447Z,97464.84
2024-05-09T17:57:34.045Z,97464.84
2024-05-09T18:00:01.112Z,97463.50
2024-05-09T18:02:28.282Z,97458.50
2024-05-09T18:04:55.434Z,97468.16
2024-05-09T18:07:22.548Z,97469.44
2024-05-09T18:09:49.477Z,97472.41
2024-05-09T18:12:16.391Z,97477.38
2024-05-09T18:14:44.084Z,97481.28
2024-05-09T18:17:12.805Z,97484.06
2024-05-09T18:19:40.071Z,97488.25
2024-05-09T18:22:07.013Z,97485.06
2024-05-09T18:24:34.042Z,97493.81
2024-05-09T18:27:06.625Z,97491.28
2024-05-09T18:29:33.728Z,97492.13
2024-05-09T18:32:00.729Z,97485.63
2024-05-09T18:34:27.760Z,97498.38
2024-05-09T18:36:55.149Z,97504.38
2024-05-09T18:39:22.769Z,97505.22
2024-05-09T18:41:49.715Z,97511.56
2024-05-09T18:44:16.591Z,97511.03
2024-05-09T18:46:43.749Z,97508.56
2024-05-09T18:49:10.857Z,97501.59
2024-05-09T18:51:38.014Z,97515.78
2024-05-09T18:54:09.179Z,97514.66
2024-05-09T18:56:40.373Z,97521.59
2024-05-09T18:59:18.619Z,97517.19
2024-05-09T19:01:46.334Z,97518.56
2024-05-09T19:04:13.665Z,97521.59
2024-05-09T19:06:40.902Z,97525.09
2024-05-09T19:09:07.925Z,97522.88
2024-05-09T19:11:34.956Z,97531.09
2024-05-09T19:14:04.772Z,97528.47
2024-05-09T19:16:32.094Z,97530.50
2024-05-09T19:18:59.255Z,97531.09
2024-05-09T19:21:26.718Z,97534.97
2024-05-09T19:23:55.549Z,97541.06
2024-05-09T19:26:23.618Z,97545.66
2024-05-09T19:28:51.215Z,97538.88
2024-05-09T19:31:18.979Z,97543.16
2024-05-09T19:33:46.067Z,97547.22
2024-05-09T19:36:13.279Z,97539.41
2024-05-09T19:38:40.158Z,97540.66
2024-05-09T19:41:07.198Z,97539.69
2024-05-09T19:43:35.959Z,97542.75
2024-05-09T19:46:03.310Z,97544.69
2024-05-09T19:48:30.452Z,97546.66
2024-05-09T19:50:57.745Z,97535.28
2024-05-09T19:53:25.248Z,97533.59
2024-05-09T19:55:52.229Z,97540.00
2024-05-09T19:58:19.225Z,97537.38
2024-05-09T20:00:46.278Z,97542.47
2024-05-09T20:03:14.985Z,97542.47
2024-05-09T20:05:45.127Z,97535.69
2024-05-09T20:08:12.889Z,97546.09
2024-05-09T20:10:40.254Z,97544.16
2024-05-09T20:13:08.392Z,97541.78
2024-05-09T20:15:37.006Z,97543.59
2024-05-09T20:18:04.979Z,97553.47
2024-05-09T20:20:38.037Z,97553.31
2024-05-09T20:23:09.534Z,97555.97
2024-05-09T20:25:40.164Z,97550.13
2024-05-09T20:28:07.458Z,97548.47
2024-05-09T20:30:35.804Z,97548.88
2024-05-09T20:33:05.042Z,97550.00
2024-05-09T20:35:33.533Z,97547.63
2024-05-09T20:38:01.969Z,97541.94
2024-05-09T20:40:34.155Z,97550.97
2024-05-09T20:43:04.868Z,97549.44
2024-05-09T20:45:32.112Z,97540.28
2024-05-09T20:48:04.047Z,97546.94
2024-05-09T20:50:37.878Z,97555.13
2024-05-09T20:53:09.570Z,97546.81
2024-05-09T20:55:36.941Z,97546.38
2024-05-09T20:58:04.059Z,97555.13
2024-05-09T21:00:39.295Z,97553.06
2024-05-09T21:03:10.178Z,97550.56
2024-05-09T21:05:37.477Z,97549.56
2024-05-09T21:08:04.697Z,97551.94
2024-05-09T21:10:33.158Z,97549.19
2024-05-09T21:13:02.869Z,97559.03
2024-05-09T21:15:30.679Z,97555.72
2024-05-09T21:17:58.255Z,97555.00
2024-05-09T21:20:31.020Z,97566.38
2024-05-09T21:22:59.942Z,97563.63
2024-05-09T21:25:27.182Z,97563.06
2024-05-09T21:27:54.444Z,97562.25
2024-05-09T21:30:32.053Z,97570.97
2024-05-09T21:33:13.068Z,97569.44
2024-05-09T21:35:45.673Z,97569.94
2024-05-09T21:38:14.240Z,97578.56
2024-05-09T21:40:42.077Z,97570.53
2024-05-09T21:43:09.316Z,97569.72
2024-05-09T21:45:37.238Z,97567.78
2024-05-09T21:48:05.262Z,97566.38
2024-05-09T21:50:39.212Z,97571.63
2024-05-09T21:53:08.559Z,97572.19
2024-05-09T21:55:35.711Z,97572.59
2024-05-09T21:58:03.501Z,97583.44
2024-05-09T22:00:36.311Z,97581.75
2024-05-09T22:03:07.086Z,97570.66
2024-05-09T22:05:35.313Z,97575.38
2024-05-09T22:08:05.351Z,97581.75
2024-05-09T22:10:35.036Z,97579.38
2024-05-09T22:13:05.199Z,97573.28
2024-05-09T22:15:36.437Z,97572.47
2024-05-09T22:18:04.750Z,97575.81
2024-05-09T22:20:37.244Z,97579.25
2024-05-09T22:23:06.430Z,97574.66
2024-05-09T22:25:33.886Z,97570.50
2024-05-09T22:28:02.004Z,97578.84
2024-05-09T22:32:59.069Z,97578.69
2024-05-09T22:35:25.985Z,97583.81
2024-05-09T22:37:53.080Z,97573.13
2024-05-09T22:40:28.985Z,97565.66
2024-05-09T22:43:05.517Z,97568.56
2024-05-09T22:45:33.043Z,97564.94
2024-05-09T22:48:00.353Z,97562.72
2024-05-09T22:50:32.826Z,97564.13
2024-05-09T22:53:01.060Z,97564.94
2024-05-09T22:55:28.338Z,97550.38
2024-05-09T22:57:55.478Z,97557.03
2024-05-09T23:00:30.865Z,97554.41
2024-05-09T23:03:00.420Z,97556.34
2024-05-09T23:05:27.712Z,97555.53
2024-05-09T23:07:55.130Z,97545.81
2024-05-09T23:10:30.822Z,97556.75
2024-05-09T23:13:02.888Z,97557.47
2024-05-09T23:15:30.756Z,97559.13
2024-05-09T23:17:58.478Z,97550.25
2024-05-09T23:20:33.501Z,97553.84
2024-05-09T23:23:06.286Z,97548.31
2024-05-09T23:25:33.874Z,97541.09
2024-05-09T23:28:01.500Z,97543.44
2024-05-09T23:30:36.425Z,97543.88
2024-05-09T23:33:07.476Z,97545.28
2024-05-09T23:35:35.368Z,97543.34
2024-05-09T23:38:02.705Z,97541.41
2024-05-09T23:40:38.402Z,97540.16
2024-05-09T23:43:10.492Z,97545.44
2024-05-09T23:45:41.178Z,97539.88
2024-05-09T23:48:09.399Z,97532.78
2024-05-09T23:50:38.799Z,97537.25
2024-05-09T23:53:08.981Z,97535.56
2024-05-09T23:55:37.474Z,97540.97
2024-05-09T23:58:04.945Z,97524.31
